createdAt,value
2019-05-10T00:00:13.661Z,100106.96
2019-05-10T00:05:26.505Z,100103.11
2019-05-10T00:10:20.370Z,100104.89
2019-05-10T00:15:16.449Z,100110.34
2019-05-10T00:20:10.510Z,100106.66
2019-05-10T00:25:05.464Z,100116.89
2019-05-10T00:29:59.513Z,100117.28
2019-05-10T00:34:53.474Z,100120.43
2019-05-10T00:39:47.431Z,100119.34
2019-05-10T00:44:41.543Z,100116.69
2019-05-10T00:49:35.497Z,100116.89
2019-05-10T00:54:29.464Z,100114.45
2019-05-10T00:59:23.423Z,100119.15
2019-05-10T01:04:17.396Z,100122.39
2019-05-10T01:09:12.879Z,100120.79
2019-05-10T01:14:06.845Z,100119.59
2019-05-10T01:19:00.833Z,100127.74
2019-05-10T01:23:54.790Z,100124.34
2019-05-10T01:28:48.817Z,100134.04
2019-05-10T01:33:42.736Z,100139.24
2019-05-10T01:38:36.802Z,100144.78
2019-05-10T01:43:30.761Z,100150.94
2019-05-10T01:48:24.771Z,100147.98
2019-05-10T01:53:18.717Z,100155.20
2019-05-10T01:58:12.676Z,100154.06
2019-05-10T02:03:06.637Z,100160.55
2019-05-10T02:08:00.635Z,100163.47
2019-05-10T02:12:54.584Z,100163.05
2019-05-10T02:17:48.548Z,100163.27
2019-05-10T02:22:42.564Z,100161.16
2019-05-10T02:27:36.499Z,100166.98
2019-05-10T02:32:30.447Z,100167.56
2019-05-10T02:37:24.430Z,100174.43
2019-05-10T02:42:18.422Z,100177.31
2019-05-10T02:47:12.485Z,100170.89
2019-05-10T02:52:06.450Z,100178.29
2019-05-10T02:57:01.012Z,100180.11
2019-05-10T03:01:55.489Z,100171.85
2019-05-10T03:06:53.313Z,100179.53
2019-05-10T03:11:48.267Z,100184.38
2019-05-10T03:16:45.029Z,100188.41
2019-05-10T03:21:40.901Z,100192.28
2019-05-10T03:26:50.294Z,100203.17
2019-05-10T03:31:32.143Z,100205.45
2019-05-10T03:36:26.102Z,100206.98
2019-05-10T03:41:20.246Z,100213.59
2019-05-10T03:46:14.183Z,100223.83
2019-05-10T03:51:08.324Z,100238.30
2019-05-10T03:56:02.509Z,100242.28
2019-05-10T04:00:56.442Z,100234.02
2019-05-10T04:05:50.473Z,100234.80
2019-05-10T04:10:44.732Z,100241.69
2019-05-10T04:15:38.691Z,100247.37
2019-05-10T04:20:32.669Z,100255.44
2019-05-10T04:25:26.649Z,100261.75
2019-05-10T04:30:20.704Z,100265.58
2019-05-10T04:35:14.793Z,100275.91
2019-05-10T04:40:08.944Z,100279.17
2019-05-10T04:45:04.524Z,100290.34
2019-05-10T04:49:58.489Z,100291.98
2019-05-10T04:54:52.464Z,100299.73
2019-05-10T04:59:46.434Z,100296.36
2019-05-10T05:04:40.437Z,100306.50
2019-05-10T05:09:34.491Z,100321.03
2019-05-10T05:14:28.460Z,100315.11
2019-05-10T05:19:22.458Z,100312.19
2019-05-10T05:24:16.826Z,100318.92
2019-05-10T05:29:12.337Z,100328.37
2019-05-10T05:34:06.427Z,100325.77
2019-05-10T05:39:00.468Z,100337.40
2019-05-10T05:43:54.526Z,100342.88
2019-05-10T05:48:51.414Z,100351.21
2019-05-10T05:53:44.783Z,100349.36
2019-05-10T05:58:44.688Z,100352.09
2019-05-10T06:03:34.799Z,100362.92
2019-05-10T06:08:30.276Z,100372.98
2019-05-10T06:13:30.454Z,100381.94
2019-05-10T06:18:20.257Z,100378.66
2019-05-10T06:23:14.250Z,100387.69
2019-05-10T06:28:25.153Z,100394.14
2019-05-10T06:33:12.533Z,100403.20
2019-05-10T06:38:00.057Z,100403.25
2019-05-10T06:42:54.164Z,100409.84
2019-05-10T06:47:50.344Z,100422.08
2019-05-10T06:52:44.125Z,100428.34
2019-05-10T06:57:38.073Z,100435.02
2019-05-10T07:02:32.610Z,100444.98
2019-05-10T07:07:43.197Z,100444.98
2019-05-10T07:12:22.717Z,100457.05
2019-05-10T07:17:16.675Z,100464.64
2019-05-10T07:22:10.765Z,100472.97
2019-05-10T07:27:05.784Z,100472.09
2019-05-10T07:32:00.100Z,100487.45
2019-05-10T07:36:54.067Z,100488.66
2019-05-10T07:41:48.024Z,100493.34
2019-05-10T07:46:46.591Z,100503.91
2019-05-10T07:51:37.920Z,100512.86
2019-05-10T07:56:32.041Z,100523.32
2019-05-10T08:01:32.475Z,100520.26
2019-05-10T08:06:21.985Z,100531.23
2019-05-10T08:11:15.972Z,100541.56
2019-05-10T08:16:16.786Z,100539.98
2019-05-10T08:21:20.990Z,100549.50
2019-05-10T08:26:04.458Z,100550.02
2019-05-10T08:30:58.998Z,100549.78
2019-05-10T08:36:00.803Z,100556.92
2019-05-10T08:40:49.225Z,100564.84
2019-05-10T08:45:44.866Z,100578.50
2019-05-10T08:50:49.308Z,100580.83
2019-05-10T08:55:34.961Z,100575.25
2019-05-10T09:00:45.142Z,100584.78
2019-05-10T09:05:29.001Z,100597.27
2019-05-10T09:10:22.050Z,100603.33
2019-05-10T09:15:16.269Z,100603.52
2019-05-10T09:20:11.981Z,100619.13
2019-05-10T09:25:07.004Z,100618.74
2019-05-10T09:30:02.978Z,100625.98
2019-05-10T09:34:59.845Z,100633.82
2019-05-10T09:40:04.038Z,100645.84
2019-05-10T09:44:48.974Z,100656.56
2019-05-10T09:49:46.907Z,100659.55
2019-05-10T09:54:38.826Z,100662.81
2019-05-10T09:59:32.800Z,100675.08
2019-05-10T10:04:28.160Z,100683.59
2019-05-10T10:09:24.528Z,100686.30
2019-05-10T10:14:18.206Z,100689.27
2019-05-10T10:19:12.175Z,100697.98
2019-05-10T10:24:15.513Z,100701.96
2019-05-10T10:29:02.311Z,100702.40
2019-05-10T10:33:59.462Z,100708.76
2019-05-10T10:38:52.217Z,100702.52
2019-05-10T10:43:48.445Z,100706.11
2019-05-10T10:48:43.498Z,100706.64
2019-05-10T10:53:38.281Z,100704.42
2019-05-10T10:58:32.324Z,100713.38
2019-05-10T11:03:30.356Z,100718.47
2019-05-10T11:08:22.277Z,100715.09
2019-05-10T11:13:20.501Z,100713.17
2019-05-10T11:18:12.131Z,100712.84
2019-05-10T11:23:06.102Z,100720.73
2019-05-10T11:28:01.750Z,100715.11
2019-05-10T11:32:56.118Z,100715.25
2019-05-10T11:37:50.840Z,100712.77
2019-05-10T11:42:47.441Z,100714.45
2019-05-10T11:47:41.131Z,100725.34
2019-05-10T11:52:36.608Z,100724.36
2019-05-10T11:57:32.898Z,100723.73
2019-05-10T12:02:37.921Z,100715.23
2019-05-10T12:07:27.380Z,100718.14
2019-05-10T12:12:30.523Z,100721.16
2019-05-10T12:17:14.565Z,100724.34
2019-05-10T12:22:08.596Z,100710.22
2019-05-10T12:27:25.728Z,100711.38
2019-05-10T12:31:58.668Z,100705.33
2019-05-10T12:36:52.757Z,100702.95
2019-05-10T12:41:49.948Z,100686.89
2019-05-10T12:46:44.452Z,100689.70
2019-05-10T12:51:40.897Z,100694.96
2019-05-10T12:56:34.940Z,100686.33
2019-05-10T13:01:31.789Z,100676.76
2019-05-10T13:06:26.338Z,100676.44
2019-05-10T13:11:25.329Z,100664.86
2019-05-10T13:16:16.247Z,100659.09
2019-05-10T13:21:19.492Z,100653.94
2019-05-10T13:26:06.177Z,100650.80
2019-05-10T13:31:05.691Z,100654.14
2019-05-10T13:35:57.047Z,100657.17
2019-05-10T13:40:52.024Z,100653.26
2019-05-10T13:45:46.101Z,100651.58
2019-05-10T13:50:40.080Z,100644.63
2019-05-10T13:55:34.046Z,100633.03
2019-05-10T14:00:34.154Z,100646.75
2019-05-10T14:05:24.210Z,100643.96
2019-05-10T14:10:23.628Z,100640.02
2019-05-10T14:15:14.565Z,100642.16
2019-05-10T14:20:19.571Z,100635.24
2019-05-10T14:25:05.614Z,100636.42
2019-05-10T14:29:59.623Z,100631.61
2019-05-10T14:34:53.642Z,100630.50
2019-05-10T14:39:47.631Z,100637.83
2019-05-10T14:44:41.647Z,100645.58
2019-05-10T14:49:35.668Z,100655.42
2019-05-10T14:54:42.722Z,100652.20
2019-05-10T14:59:25.865Z,100660.72
2019-05-10T15:04:43.691Z,100656.20
2019-05-10T15:09:21.722Z,100652.35
2019-05-10T15:14:11.883Z,100657.93
2019-05-10T15:19:05.995Z,100647.56
2019-05-10T15:24:00.828Z,100649.23
2019-05-10T15:28:55.941Z,100640.56
2019-05-10T15:33:49.923Z,100644.44
2019-05-10T15:38:50.118Z,100636.33
2019-05-10T15:43:40.055Z,100631.05
2019-05-10T15:48:36.646Z,100635.04
2019-05-10T15:53:30.101Z,100641.99
2019-05-10T15:58:24.065Z,100647.00
2019-05-10T16:03:18.265Z,100645.06
2019-05-10T16:08:13.767Z,100643.20
2019-05-10T16:13:07.896Z,100647.81
2019-05-10T16:18:02.029Z,100658.31
2019-05-10T16:22:56.055Z,100659.12
2019-05-10T16:27:50.060Z,100680.19
2019-05-10T16:32:45.950Z,100732.91
2019-05-10T16:37:39.940Z,100761.16
2019-05-10T16:42:35.810Z,100745.61
2019-05-10T16:47:29.824Z,100705.93
2019-05-10T16:52:26.169Z,100706.50
2019-05-10T16:57:19.670Z,100698.03
2019-05-10T17:02:13.747Z,100707.13
2019-05-10T17:07:12.865Z,100699.81
2019-05-10T17:12:03.920Z,100701.81
2019-05-10T17:16:59.797Z,100695.09
2019-05-10T17:21:53.870Z,100686.83
2019-05-10T17:26:47.841Z,100685.94
2019-05-10T17:31:45.775Z,100684.56
2019-05-10T17:36:37.711Z,100685.84
2019-05-10T17:41:31.817Z,100681.34
2019-05-10T17:46:25.869Z,100693.55
2019-05-10T17:51:19.978Z,100696.55
2019-05-10T17:56:13.950Z,100704.50
2019-05-10T18:01:08.065Z,100714.11
2019-05-10T18:06:02.728Z,100713.25
2019-05-10T18:11:03.385Z,100717.30
2019-05-10T18:15:52.710Z,100709.80
2019-05-10T18:20:46.675Z,100725.55
2019-05-10T18:25:40.724Z,100733.40
2019-05-10T18:30:34.689Z,100739.92
2019-05-10T18:35:28.673Z,100736.55
2019-05-10T18:40:25.152Z,100741.50
2019-05-10T18:45:23.237Z,100753.17
2019-05-10T18:50:14.771Z,100746.86
2019-05-10T18:55:08.938Z,100748.58
2019-05-10T19:00:05.093Z,100751.82
2019-05-10T19:04:59.233Z,100749.27
2019-05-10T19:09:53.367Z,100739.92
2019-05-10T19:14:47.347Z,100741.53
2019-05-10T19:19:42.237Z,100737.75
2019-05-10T19:24:36.602Z,100738.03
2019-05-10T19:29:30.578Z,100747.65
2019-05-10T19:34:24.663Z,100745.60
2019-05-10T19:39:18.671Z,100745.37
2019-05-10T19:44:12.668Z,100748.37
2019-05-10T19:49:12.935Z,100762.31
2019-05-10T19:54:03.029Z,100774.05
2019-05-10T19:58:57.195Z,100778.84
2019-05-10T20:03:51.264Z,100770.52
2019-05-10T20:08:45.288Z,100777.62
2019-05-10T20:13:39.371Z,100791.80
2019-05-10T20:18:33.410Z,100778.01
2019-05-10T20:23:27.394Z,100791.08
2019-05-10T20:28:21.875Z,100759.51
2019-05-10T20:33:15.881Z,100763.57
2019-05-10T20:38:09.988Z,100785.00
2019-05-10T20:43:04.112Z,100804.44
2019-05-10T20:47:58.211Z,100795.22
2019-05-10T20:52:52.173Z,100775.12
2019-05-10T20:57:46.189Z,100782.41
2019-05-10T21:02:40.262Z,100775.00
2019-05-10T21:07:34.532Z,100766.30
2019-05-10T21:12:28.529Z,100763.19
2019-05-10T21:17:22.504Z,100759.96
2019-05-10T21:22:16.619Z,100756.66
2019-05-10T21:27:10.597Z,100750.28
2019-05-10T21:32:04.695Z,100745.23
2019-05-10T21:36:58.706Z,100747.54
2019-05-10T21:41:52.916Z,100748.64
2019-05-10T21:46:46.908Z,100732.95
2019-05-10T21:51:40.903Z,100716.09
2019-05-10T21:56:35.858Z,100722.97
2019-05-10T22:01:30.746Z,100714.91
2019-05-10T22:06:24.729Z,100729.81
2019-05-10T22:11:18.735Z,100718.95
2019-05-10T22:16:12.812Z,100709.53
2019-05-10T22:21:06.919Z,100708.12
2019-05-10T22:26:00.902Z,100695.47
2019-05-10T22:30:54.858Z,100685.64
2019-05-10T22:35:49.001Z,100690.50
2019-05-10T22:40:43.158Z,100699.05
2019-05-10T22:45:37.099Z,100692.25
2019-05-10T22:50:31.117Z,100690.22
2019-05-10T22:55:25.047Z,100694.59
2019-05-10T23:00:19.907Z,100698.47
2019-05-10T23:05:14.101Z,100687.07
2019-05-10T23:10:08.397Z,100676.65
2019-05-10T23:15:04.440Z,100671.06
2019-05-10T23:19:58.545Z,100658.60
2019-05-10T23:24:52.511Z,100664.41
2019-05-10T23:29:46.575Z,100671.27
2019-05-10T23:34:40.531Z,100667.78
2019-05-10T23:39:40.970Z,100657.55
2019-05-10T23:44:30.494Z,100647.47
2019-05-10T23:49:24.515Z,100654.34
2019-05-10T23:54:18.492Z,100659.98
2019-05-10T23:59:12.561Z,100660.22
